sensor_id;sensor_type;location;lat;lon;timestamp;temperature;humidity
26655;DHT22;14278;50.784;4.630;2023-05-08T00:00:26;16.30;99.90
26655;DHT22;14278;50.784;4.630;2023-05-08T00:02:52;16.10;99.90
26655;DHT22;14278;50.784;4.630;2023-05-08T00:05:18;16.00;99.90
26655;DHT22;14278;50.784;4.630;2023-05-08T00:07:44;15.70;99.90
26655;DHT22;14278;50.784;4.630;2023-05-08T00:10:10;15.60;99.90
26655;DHT22;14278;50.784;4.630;2023-05-08T00:12:36;15.50;99.90
26655;DHT22;14278;50.784;4.630;2023-05-08T00:15:03;15.60;99.90
26655;DHT22;14278;50.784;4.630;2023-05-08T00:17:29;15.80;99.90
26655;DHT22;14278;50.784;4.630;2023-05-08T00:19:55;16.10;99.90
26655;DHT22;14278;50.784;4.630;2023-05-08T00:22:21;16.20;99.90
26655;DHT22;14278;50.784;4.630;2023-05-08T00:24:47;16.10;99.90
26655;DHT22;14278;50.784;4.630;2023-05-08T00:27:13;16.10;99.90
26655;DHT22;14278;50.784;4.630;2023-05-08T00:29:38;16.00;99.90
26655;DHT22;14278;50.784;4.630;2023-05-08T00:32:08;16.40;99.90
26655;DHT22;14278;50.784;4.630;2023-05-08T00:34:34;16.40;99.90
26655;DHT22;14278;50.784;4.630;2023-05-08T00:37:00;16.40;99.90
26655;DHT22;14278;50.784;4.630;2023-05-08T00:39:25;16.00;99.90
26655;DHT22;14278;50.784;4.630;2023-05-08T00:41:51;16.00;99.90
26655;DHT22;14278;50.784;4.630;2023-05-08T00:44:17;16.30;99.90
26655;DHT22;14278;50.784;4.630;2023-05-08T00:46:44;16.40;99.90
26655;DHT22;14278;50.784;4.630;2023-05-08T00:49:11;16.20;99.90
26655;DHT22;14278;50.784;4.630;2023-05-08T00:51:40;15.80;99.90
26655;DHT22;14278;50.784;4.630;2023-05-08T00:54:07;15.50;99.90
26655;DHT22;14278;50.784;4.630;2023-05-08T00:56:34;15.80;99.90
26655;DHT22;14278;50.784;4.630;2023-05-08T00:59:02;15.70;99.90
26655;DHT22;14278;50.784;4.630;2023-05-08T01:01:28;15.80;99.90
26655;DHT22;14278;50.784;4.630;2023-05-08T01:03:56;15.90;99.90
26655;DHT22;14278;50.784;4.630;2023-05-08T01:06:21;15.60;99.90
26655;DHT22;14278;50.784;4.630;2023-05-08T01:08:47;15.40;99.90
26655;DHT22;14278;50.784;4.630;2023-05-08T01:11:19;15.30;99.90
26655;DHT22;14278;50.784;4.630;2023-05-08T01:16:24;15.80;99.90
26655;DHT22;14278;50.784;4.630;2023-05-08T01:19:02;15.80;99.90
26655;DHT22;14278;50.784;4.630;2023-05-08T01:30:25;15.90;99.90
26655;DHT22;14278;50.784;4.630;2023-05-08T01:32:56;16.10;99.90
26655;DHT22;14278;50.784;4.630;2023-05-08T01:35:33;15.90;99.90
26655;DHT22;14278;50.784;4.630;2023-05-08T01:38:11;16.00;99.90
26655;DHT22;14278;50.784;4.630;2023-05-08T01:40:52;15.80;99.90
26655;DHT22;14278;50.784;4.630;2023-05-08T01:46:13;16.10;99.90
26655;DHT22;14278;50.784;4.630;2023-05-08T01:48:49;15.90;99.90
26655;DHT22;14278;50.784;4.630;2023-05-08T01:51:22;16.00;99.90
26655;DHT22;14278;50.784;4.630;2023-05-08T01:53:51;16.20;99.90
26655;DHT22;14278;50.784;4.630;2023-05-08T01:56:21;16.40;99.90
26655;DHT22;14278;50.784;4.630;2023-05-08T01:58:53;16.60;99.90
26655;DHT22;14278;50.784;4.630;2023-05-08T02:01:22;16.50;99.90
26655;DHT22;14278;50.784;4.630;2023-05-08T02:03:50;16.90;99.90
26655;DHT22;14278;50.784;4.630;2023-05-08T02:06:19;16.80;99.90
26655;DHT22;14278;50.784;4.630;2023-05-08T02:08:46;16.60;99.90
26655;DHT22;14278;50.784;4.630;2023-05-08T02:11:14;16.60;99.90
26655;DHT22;14278;50.784;4.630;2023-05-08T02:13:42;16.40;99.90
26655;DHT22;14278;50.784;4.630;2023-05-08T02:16:09;16.20;99.90
26655;DHT22;14278;50.784;4.630;2023-05-08T02:18:38;16.30;99.90
26655;DHT22;14278;50.784;4.630;2023-05-08T02:21:07;16.30;99.90
26655;DHT22;14278;50.784;4.630;2023-05-08T02:23:35;16.60;99.90
26655;DHT22;14278;50.784;4.630;2023-05-08T02:26:01;16.60;99.90
26655;DHT22;14278;50.784;4.630;2023-05-08T02:28:29;16.80;99.90
26655;DHT22;14278;50.784;4.630;2023-05-08T02:30:57;16.50;99.90
26655;DHT22;14278;50.784;4.630;2023-05-08T02:33:23;16.70;99.90
26655;DHT22;14278;50.784;4.630;2023-05-08T02:35:52;17.00;99.90
26655;DHT22;14278;50.784;4.630;2023-05-08T02:38:20;17.20;99.90
26655;DHT22;14278;50.784;4.630;2023-05-08T02:40:50;17.00;99.90
26655;DHT22;14278;50.784;4.630;2023-05-08T02:43:17;17.20;99.90
26655;DHT22;14278;50.784;4.630;2023-05-08T02:46:22;17.20;99.90
26655;DHT22;14278;50.784;4.630;2023-05-08T02:49:03;17.10;99.90
26655;DHT22;14278;50.784;4.630;2023-05-08T02:51:49;17.00;99.90
26655;DHT22;14278;50.784;4.630;2023-05-08T02:54:37;17.10;99.90
26655;DHT22;14278;50.784;4.630;2023-05-08T02:57:16;17.00;99.90
26655;DHT22;14278;50.784;4.630;2023-05-08T02:59:54;17.10;99.90
26655;DHT22;14278;50.784;4.630;2023-05-08T03:02:34;17.10;99.90
26655;DHT22;14278;50.784;4.630;2023-05-08T03:05:08;16.60;99.90
26655;DHT22;14278;50.784;4.630;2023-05-08T03:07:37;17.00;99.90
26655;DHT22;14278;50.784;4.630;2023-05-08T03:10:09;16.90;99.90
26655;DHT22;14278;50.784;4.630;2023-05-08T03:12:39;17.00;99.90
26655;DHT22;14278;50.784;4.630;2023-05-08T03:15:14;16.80;99.90
26655;DHT22;14278;50.784;4.630;2023-05-08T03:17:43;17.10;99.90
26655;DHT22;14278;50.784;4.630;2023-05-08T03:20:13;17.30;99.90
26655;DHT22;14278;50.784;4.630;2023-05-08T03:22:42;17.20;99.90
26655;DHT22;14278;50.784;4.630;2023-05-08T03:25:10;17.30;99.90
26655;DHT22;14278;50.784;4.630;2023-05-08T03:27:39;17.30;99.90
26655;DHT22;14278;50.784;4.630;2023-05-08T03:30:06;17.20;99.90
26655;DHT22;14278;50.784;4.630;2023-05-08T03:32:34;17.30;99.90
26655;DHT22;14278;50.784;4.630;2023-05-08T03:35:00;17.20;99.90
26655;DHT22;14278;50.784;4.630;2023-05-08T03:37:27;17.20;99.90
26655;DHT22;14278;50.784;4.630;2023-05-08T03:39:56;16.90;99.90
26655;DHT22;14278;50.784;4.630;2023-05-08T03:42:23;17.00;99.90
26655;DHT22;14278;50.784;4.630;2023-05-08T03:44:50;17.20;99.90
26655;DHT22;14278;50.784;4.630;2023-05-08T03:47:23;17.20;99.90
26655;DHT22;14278;50.784;4.630;2023-05-08T03:49:50;17.00;99.90
26655;DHT22;14278;50.784;4.630;2023-05-08T03:52:17;17.20;99.90
26655;DHT22;14278;50.784;4.630;2023-05-08T03:54:43;17.30;99.90
26655;DHT22;14278;50.784;4.630;2023-05-08T03:57:09;17.10;99.90
26655;DHT22;14278;50.784;4.630;2023-05-08T04:02:45;17.10;99.90
26655;DHT22;14278;50.784;4.630;2023-05-08T04:05:25;17.10;99.90
26655;DHT22;14278;50.784;4.630;2023-05-08T04:08:14;17.20;99.90
26655;DHT22;14278;50.784;4.630;2023-05-08T04:10:53;17.40;99.90
26655;DHT22;14278;50.784;4.630;2023-05-08T04:13:27;17.30;99.90
26655;DHT22;14278;50.784;4.630;2023-05-08T04:16:05;17.20;99.90
26655;DHT22;14278;50.784;4.630;2023-05-08T04:18:35;16.90;99.90
26655;DHT22;14278;50.784;4.630;2023-05-08T04:21:02;17.00;99.90
26655;DHT22;14278;50.784;4.630;2023-05-08T04:23:34;17.00;99.90
26655;DHT22;14278;50.784;4.630;2023-05-08T04:26:01;16.70;99.90
26655;DHT22;14278;50.784;4.630;2023-05-08T04:28:28;16.70;99.90
26655;DHT22;14278;50.784;4.630;2023-05-08T04:30:55;16.70;99.90
26655;DHT22;14278;50.784;4.630;2023-05-08T04:33:21;16.80;99.90
26655;DHT22;14278;50.784;4.630;2023-05-08T04:35:48;17.20;99.90
26655;DHT22;14278;50.784;4.630;2023-05-08T04:38:14;17.20;99.90
26655;DHT22;14278;50.784;4.630;2023-05-08T04:40:40;17.20;99.90
26655;DHT22;14278;50.784;4.630;2023-05-08T04:43:06;17.30;99.90
26655;DHT22;14278;50.784;4.630;2023-05-08T04:45:32;17.20;99.90
26655;DHT22;14278;50.784;4.630;2023-05-08T04:47:57;17.10;99.90
26655;DHT22;14278;50.784;4.630;2023-05-08T04:50:23;17.30;99.90
26655;DHT22;14278;50.784;4.630;2023-05-08T04:52:49;17.50;99.90
26655;DHT22;14278;50.784;4.630;2023-05-08T04:55:15;17.60;99.90
26655;DHT22;14278;50.784;4.630;2023-05-08T04:57:40;17.40;99.90
26655;DHT22;14278;50.784;4.630;2023-05-08T05:00:07;17.30;99.90
26655;DHT22;14278;50.784;4.630;2023-05-08T05:02:33;17.00;99.90
26655;DHT22;14278;50.784;4.630;2023-05-08T05:04:59;17.00;99.90
26655;DHT22;14278;50.784;4.630;2023-05-08T05:07:25;17.00;99.90
26655;DHT22;14278;50.784;4.630;2023-05-08T05:09:51;17.00;99.90
26655;DHT22;14278;50.784;4.630;2023-05-08T05:12:17;17.10;99.90
26655;DHT22;14278;50.784;4.630;2023-05-08T05:14:43;17.10;99.90
26655;DHT22;14278;50.784;4.630;2023-05-08T05:17:08;17.00;99.90
26655;DHT22;14278;50.784;4.630;2023-05-08T05:19:34;16.80;99.90
26655;DHT22;14278;50.784;4.630;2023-05-08T05:22:00;16.90;99.90
26655;DHT22;14278;50.784;4.630;2023-05-08T05:24:26;17.20;99.90
26655;DHT22;14278;50.784;4.630;2023-05-08T05:26:52;17.60;99.90
26655;DHT22;14278;50.784;4.630;2023-05-08T05:29:18;17.70;99.90
26655;DHT22;14278;50.784;4.630;2023-05-08T05:31:44;17.70;99.90
26655;DHT22;14278;50.784;4.630;2023-05-08T05:34:09;17.60;99.90
26655;DHT22;14278;50.784;4.630;2023-05-08T05:36:35;17.60;99.90
26655;DHT22;14278;50.784;4.630;2023-05-08T05:39:01;17.60;99.90
26655;DHT22;14278;50.784;4.630;2023-05-08T05:41:27;17.80;99.90
26655;DHT22;14278;50.784;4.630;2023-05-08T05:43:53;17.60;99.90
26655;DHT22;14278;50.784;4.630;2023-05-08T05:46:19;17.60;99.90
26655;DHT22;14278;50.784;4.630;2023-05-08T05:48:45;17.70;99.90
26655;DHT22;14278;50.784;4.630;2023-05-08T05:51:10;17.90;99.90
26655;DHT22;14278;50.784;4.630;2023-05-08T05:53:36;17.70;99.90
26655;DHT22;14278;50.784;4.630;2023-05-08T05:56:02;17.60;99.90
26655;DHT22;14278;50.784;4.630;2023-05-08T05:58:28;17.70;99.90
26655;DHT22;14278;50.784;4.630;2023-05-08T06:00:54;17.80;99.90
26655;DHT22;14278;50.784;4.630;2023-05-08T06:03:20;17.60;99.90
26655;DHT22;14278;50.784;4.630;2023-05-08T06:05:46;17.50;99.90
26655;DHT22;14278;50.784;4.630;2023-05-08T06:08:12;17.50;99.90
26655;DHT22;14278;50.784;4.630;2023-05-08T06:10:38;17.90;99.90
26655;DHT22;14278;50.784;4.630;2023-05-08T06:13:03;17.90;99.90
26655;DHT22;14278;50.784;4.630;2023-05-08T06:15:31;18.20;99.90
26655;DHT22;14278;50.784;4.630;2023-05-08T06:17:57;18.30;99.90
26655;DHT22;14278;50.784;4.630;2023-05-08T06:20:22;18.20;99.90
26655;DHT22;14278;50.784;4.630;2023-05-08T06:22:48;18.00;99.90
26655;DHT22;14278;50.784;4.630;2023-05-08T06:25:14;18.30;99.90
26655;DHT22;14278;50.784;4.630;2023-05-08T06:27:42;18.50;99.90
26655;DHT22;14278;50.784;4.630;2023-05-08T06:30:08;18.50;99.90
26655;DHT22;14278;50.784;4.630;2023-05-08T06:32:35;18.80;99.90
26655;DHT22;14278;50.784;4.630;2023-05-08T06:35:02;18.60;99.90
26655;DHT22;14278;50.784;4.630;2023-05-08T06:37:28;19.00;99.90
26655;DHT22;14278;50.784;4.630;2023-05-08T06:39:55;18.70;99.90
26655;DHT22;14278;50.784;4.630;2023-05-08T06:42:20;18.40;99.90
26655;DHT22;14278;50.784;4.630;2023-05-08T06:44:46;18.10;99.90
26655;DHT22;14278;50.784;4.630;2023-05-08T06:47:12;18.80;99.90
26655;DHT22;14278;50.784;4.630;2023-05-08T06:49:38;18.70;99.90
26655;DHT22;14278;50.784;4.630;2023-05-08T06:52:04;18.70;99.90
26655;DHT22;14278;50.784;4.630;2023-05-08T06:54:30;18.80;99.90
26655;DHT22;14278;50.784;4.630;2023-05-08T06:56:56;19.60;99.90
26655;DHT22;14278;50.784;4.630;2023-05-08T06:59:21;20.00;99.90
26655;DHT22;14278;50.784;4.630;2023-05-08T07:01:48;19.90;99.90
26655;DHT22;14278;50.784;4.630;2023-05-08T07:04:15;19.70;99.90
26655;DHT22;14278;50.784;4.630;2023-05-08T07:06:41;19.90;99.90
26655;DHT22;14278;50.784;4.630;2023-05-08T07:09:07;20.00;99.90
26655;DHT22;14278;50.784;4.630;2023-05-08T07:11:33;21.40;99.90
26655;DHT22;14278;50.784;4.630;2023-05-08T07:13:59;23.50;99.90
26655;DHT22;14278;50.784;4.630;2023-05-08T07:16:26;25.30;99.90
26655;DHT22;14278;50.784;4.630;2023-05-08T07:18:51;26.70;99.90
26655;DHT22;14278;50.784;4.630;2023-05-08T07:21:17;26.90;99.90
26655;DHT22;14278;50.784;4.630;2023-05-08T07:23:44;24.90;99.90
26655;DHT22;14278;50.784;4.630;2023-05-08T07:26:10;25.40;99.90
26655;DHT22;14278;50.784;4.630;2023-05-08T07:28:37;24.90;99.90
26655;DHT22;14278;50.784;4.630;2023-05-08T07:31:06;25.30;99.90
26655;DHT22;14278;50.784;4.630;2023-05-08T07:33:31;25.60;99.90
26655;DHT22;14278;50.784;4.630;2023-05-08T07:35:58;25.40;99.90
26655;DHT22;14278;50.784;4.630;2023-05-08T07:38:24;25.40;99.90
26655;DHT22;14278;50.784;4.630;2023-05-08T07:40:51;24.30;99.90
26655;DHT22;14278;50.784;4.630;2023-05-08T07:43:24;24.40;99.90
26655;DHT22;14278;50.784;4.630;2023-05-08T07:45:50;24.50;99.90
26655;DHT22;14278;50.784;4.630;2023-05-08T07:48:16;24.70;99.90
26655;DHT22;14278;50.784;4.630;2023-05-08T07:50:42;22.90;99.90
26655;DHT22;14278;50.784;4.630;2023-05-08T07:53:12;22.90;99.90
26655;DHT22;14278;50.784;4.630;2023-05-08T07:55:38;23.40;99.90
26655;DHT22;14278;50.784;4.630;2023-05-08T07:58:03;22.70;99.90
26655;DHT22;14278;50.784;4.630;2023-05-08T08:00:29;23.10;99.90
26655;DHT22;14278;50.784;4.630;2023-05-08T08:02:55;23.00;99.90
26655;DHT22;14278;50.784;4.630;2023-05-08T08:05:22;22.40;99.90
26655;DHT22;14278;50.784;4.630;2023-05-08T08:07:48;22.70;99.90
26655;DHT22;14278;50.784;4.630;2023-05-08T08:10:14;22.90;99.90
26655;DHT22;14278;50.784;4.630;2023-05-08T08:12:40;22.60;99.90
26655;DHT22;14278;50.784;4.630;2023-05-08T08:15:06;22.20;99.90
26655;DHT22;14278;50.784;4.630;2023-05-08T08:17:33;21.80;99.90
26655;DHT22;14278;50.784;4.630;2023-05-08T08:19:59;22.80;99.90
26655;DHT22;14278;50.784;4.630;2023-05-08T08:22:25;23.40;99.90
26655;DHT22;14278;50.784;4.630;2023-05-08T08:24:51;23.50;99.90
26655;DHT22;14278;50.784;4.630;2023-05-08T08:27:16;22.70;99.90
26655;DHT22;14278;50.784;4.630;2023-05-08T08:29:43;22.40;99.90
26655;DHT22;14278;50.784;4.630;2023-05-08T08:32:09;21.60;99.90
26655;DHT22;14278;50.784;4.630;2023-05-08T08:34:35;21.50;99.90
26655;DHT22;14278;50.784;4.630;2023-05-08T08:37:03;21.00;99.90
26655;DHT22;14278;50.784;4.630;2023-05-08T08:39:32;21.40;99.90
26655;DHT22;14278;50.784;4.630;2023-05-08T08:41:59;21.70;99.90
26655;DHT22;14278;50.784;4.630;2023-05-08T08:44:25;21.90;99.90
26655;DHT22;14278;50.784;4.630;2023-05-08T08:46:52;21.40;99.90
26655;DHT22;14278;50.784;4.630;2023-05-08T08:49:24;21.00;99.90
26655;DHT22;14278;50.784;4.630;2023-05-08T08:51:57;21.60;99.90
26655;DHT22;14278;50.784;4.630;2023-05-08T08:54:27;21.90;99.90
26655;DHT22;14278;50.784;4.630;2023-05-08T08:56:54;21.90;99.90
26655;DHT22;14278;50.784;4.630;2023-05-08T08:59:22;22.10;99.90
26655;DHT22;14278;50.784;4.630;2023-05-08T09:01:54;21.80;99.90
26655;DHT22;14278;50.784;4.630;2023-05-08T09:04:20;21.80;99.90
26655;DHT22;14278;50.784;4.630;2023-05-08T09:06:48;22.70;99.90
26655;DHT22;14278;50.784;4.630;2023-05-08T09:09:14;21.40;99.90
26655;DHT22;14278;50.784;4.630;2023-05-08T09:11:42;22.30;99.90
26655;DHT22;14278;50.784;4.630;2023-05-08T09:14:10;23.20;99.90
26655;DHT22;14278;50.784;4.630;2023-05-08T09:16:36;23.70;99.90
26655;DHT22;14278;50.784;4.630;2023-05-08T09:19:03;24.40;99.90
26655;DHT22;14278;50.784;4.630;2023-05-08T09:21:29;24.60;99.90
26655;DHT22;14278;50.784;4.630;2023-05-08T09:23:56;23.00;99.90
26655;DHT22;14278;50.784;4.630;2023-05-08T09:26:35;23.20;99.90
26655;DHT22;14278;50.784;4.630;2023-05-08T09:29:12;23.60;99.90
26655;DHT22;14278;50.784;4.630;2023-05-08T09:31:41;23.60;99.90
26655;DHT22;14278;50.784;4.630;2023-05-08T09:34:08;22.50;99.90
26655;DHT22;14278;50.784;4.630;2023-05-08T09:36:34;22.80;99.90
26655;DHT22;14278;50.784;4.630;2023-05-08T09:39:01;22.80;99.90
26655;DHT22;14278;50.784;4.630;2023-05-08T09:41:27;23.80;99.90
26655;DHT22;14278;50.784;4.630;2023-05-08T09:44:04;23.70;99.90
26655;DHT22;14278;50.784;4.630;2023-05-08T09:46:30;24.60;99.90
26655;DHT22;14278;50.784;4.630;2023-05-08T09:48:59;24.70;99.90
26655;DHT22;14278;50.784;4.630;2023-05-08T09:51:27;24.20;99.90
26655;DHT22;14278;50.784;4.630;2023-05-08T09:53:54;24.20;99.90
26655;DHT22;14278;50.784;4.630;2023-05-08T09:56:33;23.80;99.90
26655;DHT22;14278;50.784;4.630;2023-05-08T09:59:01;24.00;99.90
26655;DHT22;14278;50.784;4.630;2023-05-08T10:01:32;24.20;99.90
26655;DHT22;14278;50.784;4.630;2023-05-08T10:03:59;24.20;99.90
26655;DHT22;14278;50.784;4.630;2023-05-08T10:06:25;23.50;99.90
26655;DHT22;14278;50.784;4.630;2023-05-08T10:09:10;23.70;99.90
26655;DHT22;14278;50.784;4.630;2023-05-08T10:11:37;23.50;99.90
26655;DHT22;14278;50.784;4.630;2023-05-08T10:14:03;23.50;99.90
26655;DHT22;14278;50.784;4.630;2023-05-08T10:16:30;23.10;99.90
26655;DHT22;14278;50.784;4.630;2023-05-08T10:19:00;23.00;99.90
26655;DHT22;14278;50.784;4.630;2023-05-08T10:21:34;23.50;99.90
26655;DHT22;14278;50.784;4.630;2023-05-08T10:24:04;23.30;99.90
26655;DHT22;14278;50.784;4.630;2023-05-08T10:26:31;23.30;99.90
26655;DHT22;14278;50.784;4.630;2023-05-08T10:28:59;23.60;99.90
26655;DHT22;14278;50.784;4.630;2023-05-08T10:31:28;23.50;99.90
26655;DHT22;14278;50.784;4.630;2023-05-08T10:34:00;23.60;99.90
26655;DHT22;14278;50.784;4.630;2023-05-08T10:36:29;24.30;99.90
26655;DHT22;14278;50.784;4.630;2023-05-08T10:38:59;23.50;99.90
26655;DHT22;14278;50.784;4.630;2023-05-08T10:41:25;23.50;99.90
26655;DHT22;14278;50.784;4.630;2023-05-08T10:43:52;23.80;99.90
26655;DHT22;14278;50.784;4.630;2023-05-08T10:52:06;24.10;99.90
26655;DHT22;14278;50.784;4.630;2023-05-08T10:57:19;24.80;99.90
26655;DHT22;14278;50.784;4.630;2023-05-08T10:59:45;24.20;99.90
26655;DHT22;14278;50.784;4.630;2023-05-08T11:02:12;24.80;99.90
26655;DHT22;14278;50.784;4.630;2023-05-08T11:04:38;24.30;99.90
26655;DHT22;14278;50.784;4.630;2023-05-08T11:07:04;25.10;99.90
26655;DHT22;14278;50.784;4.630;2023-05-08T11:12:06;25.50;99.90
26655;DHT22;14278;50.784;4.630;2023-05-08T11:14:35;25.70;99.90
26655;DHT22;14278;50.784;4.630;2023-05-08T11:17:03;25.80;99.90
26655;DHT22;14278;50.784;4.630;2023-05-08T11:19:29;25.30;99.90
26655;DHT22;14278;50.784;4.630;2023-05-08T11:22:15;25.40;99.90
26655;DHT22;14278;50.784;4.630;2023-05-08T11:24:49;25.20;99.90
26655;DHT22;14278;50.784;4.630;2023-05-08T11:27:15;25.00;99.90
26655;DHT22;14278;50.784;4.630;2023-05-08T11:29:41;25.50;99.90
26655;DHT22;14278;50.784;4.630;2023-05-08T11:32:09;25.90;99.90
26655;DHT22;14278;50.784;4.630;2023-05-08T11:37:11;25.20;99.90
26655;DHT22;14278;50.784;4.630;2023-05-08T11:39:40;25.90;99.90
26655;DHT22;14278;50.784;4.630;2023-05-08T11:45:12;25.30;99.90
26655;DHT22;14278;50.784;4.630;2023-05-08T11:47:40;25.10;99.90
26655;DHT22;14278;50.784;4.630;2023-05-08T11:50:11;24.90;99.90
26655;DHT22;14278;50.784;4.630;2023-05-08T11:52:38;24.70;99.90
26655;DHT22;14278;50.784;4.630;2023-05-08T11:55:08;24.80;99.90
26655;DHT22;14278;50.784;4.630;2023-05-08T11:57:35;24.80;99.90
26655;DHT22;14278;50.784;4.630;2023-05-08T12:00:11;24.90;99.90
26655;DHT22;14278;50.784;4.630;2023-05-08T12:02:42;25.00;99.90
26655;DHT22;14278;50.784;4.630;2023-05-08T12:05:09;25.20;99.90
26655;DHT22;14278;50.784;4.630;2023-05-08T12:07:44;25.40;99.90
26655;DHT22;14278;50.784;4.630;2023-05-08T12:10:12;24.90;99.90
26655;DHT22;14278;50.784;4.630;2023-05-08T12:12:42;25.00;99.90
26655;DHT22;14278;50.784;4.630;2023-05-08T12:15:12;24.80;99.90
26655;DHT22;14278;50.784;4.630;2023-05-08T12:17:39;24.80;99.90
26655;DHT22;14278;50.784;4.630;2023-05-08T12:20:12;24.70;99.90
26655;DHT22;14278;50.784;4.630;2023-05-08T12:22:49;25.20;99.90
26655;DHT22;14278;50.784;4.630;2023-05-08T12:25:16;25.20;99.90
26655;DHT22;14278;50.784;4.630;2023-05-08T12:27:42;25.40;99.90
26655;DHT22;14278;50.784;4.630;2023-05-08T12:30:11;25.60;99.90
26655;DHT22;14278;50.784;4.630;2023-05-08T12:32:41;25.80;99.90
26655;DHT22;14278;50.784;4.630;2023-05-08T12:35:09;24.90;99.90
26655;DHT22;14278;50.784;4.630;2023-05-08T12:37:35;24.80;99.90
26655;DHT22;14278;50.784;4.630;2023-05-08T12:40:02;24.90;99.90
26655;DHT22;14278;50.784;4.630;2023-05-08T12:42:44;25.50;99.90
26655;DHT22;14278;50.784;4.630;2023-05-08T12:45:24;25.60;99.90
26655;DHT22;14278;50.784;4.630;2023-05-08T12:47:53;25.50;99.90
26655;DHT22;14278;50.784;4.630;2023-05-08T12:50:20;25.90;99.90
26655;DHT22;14278;50.784;4.630;2023-05-08T12:52:47;25.90;99.90
26655;DHT22;14278;50.784;4.630;2023-05-08T12:55:23;25.80;99.90
26655;DHT22;14278;50.784;4.630;2023-05-08T12:57:49;25.40;99.90
26655;DHT22;14278;50.784;4.630;2023-05-08T13:00:17;25.30;99.90
26655;DHT22;14278;50.784;4.630;2023-05-08T13:02:53;25.30;99.90
26655;DHT22;14278;50.784;4.630;2023-05-08T13:05:22;25.00;99.90
26655;DHT22;14278;50.784;4.630;2023-05-08T13:07:49;25.40;99.90
26655;DHT22;14278;50.784;4.630;2023-05-08T13:10:16;25.50;99.90
26655;DHT22;14278;50.784;4.630;2023-05-08T13:12:44;25.10;99.90
26655;DHT22;14278;50.784;4.630;2023-05-08T13:15:10;25.00;99.90
26655;DHT22;14278;50.784;4.630;2023-05-08T13:17:36;24.90;99.90
26655;DHT22;14278;50.784;4.630;2023-05-08T13:20:02;25.10;99.90
26655;DHT22;14278;50.784;4.630;2023-05-08T13:22:29;24.70;99.90
26655;DHT22;14278;50.784;4.630;2023-05-08T13:24:55;25.10;99.90
26655;DHT22;14278;50.784;4.630;2023-05-08T13:27:21;24.70;99.90
26655;DHT22;14278;50.784;4.630;2023-05-08T13:29:47;24.80;99.90
26655;DHT22;14278;50.784;4.630;2023-05-08T13:32:13;24.50;99.90
26655;DHT22;14278;50.784;4.630;2023-05-08T13:34:39;24.50;99.90
26655;DHT22;14278;50.784;4.630;2023-05-08T13:37:05;24.90;99.90
26655;DHT22;14278;50.784;4.630;2023-05-08T13:39:31;25.10;99.90
26655;DHT22;14278;50.784;4.630;2023-05-08T13:42:02;24.80;99.90
26655;DHT22;14278;50.784;4.630;2023-05-08T13:44:28;24.60;99.90
26655;DHT22;14278;50.784;4.630;2023-05-08T13:46:54;24.30;99.90
26655;DHT22;14278;50.784;4.630;2023-05-08T13:49:20;24.60;99.90
26655;DHT22;14278;50.784;4.630;2023-05-08T13:51:49;24.70;99.90
26655;DHT22;14278;50.784;4.630;2023-05-08T13:54:15;24.80;99.90
26655;DHT22;14278;50.784;4.630;2023-05-08T13:56:40;25.10;99.90
26655;DHT22;14278;50.784;4.630;2023-05-08T13:59:07;24.00;99.90
26655;DHT22;14278;50.784;4.630;2023-05-08T14:01:33;24.00;99.90
26655;DHT22;14278;50.784;4.630;2023-05-08T14:03:59;23.50;99.90
26655;DHT22;14278;50.784;4.630;2023-05-08T14:06:24;23.70;99.90
26655;DHT22;14278;50.784;4.630;2023-05-08T14:08:51;23.40;99.90
26655;DHT22;14278;50.784;4.630;2023-05-08T14:11:17;23.20;99.90
26655;DHT22;14278;50.784;4.630;2023-05-08T14:13:43;23.50;99.90
26655;DHT22;14278;50.784;4.630;2023-05-08T14:16:09;23.80;99.90
26655;DHT22;14278;50.784;4.630;2023-05-08T14:18:36;23.50;99.90
26655;DHT22;14278;50.784;4.630;2023-05-08T14:21:02;23.50;99.90
26655;DHT22;14278;50.784;4.630;2023-05-08T14:23:28;23.50;99.90
26655;DHT22;14278;50.784;4.630;2023-05-08T14:25:54;23.60;99.90
26655;DHT22;14278;50.784;4.630;2023-05-08T14:28:20;23.70;99.90
26655;DHT22;14278;50.784;4.630;2023-05-08T14:30:45;23.90;99.90
26655;DHT22;14278;50.784;4.630;2023-05-08T14:33:11;23.90;99.90
26655;DHT22;14278;50.784;4.630;2023-05-08T14:35:37;24.00;99.90
26655;DHT22;14278;50.784;4.630;2023-05-08T14:38:03;23.90;99.90
26655;DHT22;14278;50.784;4.630;2023-05-08T14:40:29;23.90;99.90
26655;DHT22;14278;50.784;4.630;2023-05-08T14:42:55;24.10;99.90
26655;DHT22;14278;50.784;4.630;2023-05-08T14:45:21;24.30;99.90
26655;DHT22;14278;50.784;4.630;2023-05-08T14:47:47;24.00;99.90
26655;DHT22;14278;50.784;4.630;2023-05-08T14:50:13;23.90;99.90
26655;DHT22;14278;50.784;4.630;2023-05-08T14:52:38;24.20;99.90
26655;DHT22;14278;50.784;4.630;2023-05-08T14:55:05;24.80;99.90
26655;DHT22;14278;50.784;4.630;2023-05-08T14:57:30;23.60;99.90
26655;DHT22;14278;50.784;4.630;2023-05-08T14:59:56;23.70;99.90
26655;DHT22;14278;50.784;4.630;2023-05-08T15:02:23;23.90;99.90
26655;DHT22;14278;50.784;4.630;2023-05-08T15:04:48;24.20;99.90
26655;DHT22;14278;50.784;4.630;2023-05-08T15:07:14;24.10;99.90
26655;DHT22;14278;50.784;4.630;2023-05-08T15:09:40;24.70;99.90
26655;DHT22;14278;50.784;4.630;2023-05-08T15:12:06;24.90;99.90
26655;DHT22;14278;50.784;4.630;2023-05-08T15:14:32;24.40;99.90
26655;DHT22;14278;50.784;4.630;2023-05-08T15:16:58;23.80;99.90
26655;DHT22;14278;50.784;4.630;2023-05-08T15:19:23;23.70;99.90
26655;DHT22;14278;50.784;4.630;2023-05-08T15:21:49;24.00;99.90
26655;DHT22;14278;50.784;4.630;2023-05-08T15:24:15;23.80;99.90
26655;DHT22;14278;50.784;4.630;2023-05-08T15:26:41;23.80;99.90
26655;DHT22;14278;50.784;4.630;2023-05-08T15:29:07;23.40;99.90
26655;DHT22;14278;50.784;4.630;2023-05-08T15:31:32;23.90;99.90
26655;DHT22;14278;50.784;4.630;2023-05-08T15:33:58;23.70;99.90
26655;DHT22;14278;50.784;4.630;2023-05-08T15:36:24;23.40;99.90
26655;DHT22;14278;50.784;4.630;2023-05-08T15:38:50;23.50;99.90
26655;DHT22;14278;50.784;4.630;2023-05-08T15:41:18;22.80;99.90
26655;DHT22;14278;50.784;4.630;2023-05-08T15:43:44;22.90;99.90
26655;DHT22;14278;50.784;4.630;2023-05-08T15:46:10;23.20;99.90
26655;DHT22;14278;50.784;4.630;2023-05-08T15:48:37;22.70;99.90
26655;DHT22;14278;50.784;4.630;2023-05-08T15:51:02;22.50;99.90
26655;DHT22;14278;50.784;4.630;2023-05-08T15:53:28;22.60;99.90
26655;DHT22;14278;50.784;4.630;2023-05-08T15:55:54;22.40;99.90
26655;DHT22;14278;50.784;4.630;2023-05-08T15:58:21;22.20;99.90
26655;DHT22;14278;50.784;4.630;2023-05-08T16:00:47;22.30;99.90
26655;DHT22;14278;50.784;4.630;2023-05-08T16:03:13;22.20;99.90
26655;DHT22;14278;50.784;4.630;2023-05-08T16:05:39;21.90;99.90
26655;DHT22;14278;50.784;4.630;2023-05-08T16:08:05;22.00;99.90